Time;durP1;ratioP1;P1;durP2;ratioP2;P2;SDS_P1;SDS_P2;PMS_P1;PMS_P2;Temp;Humidity;BMP_temperature;BMP_pressure;BME280_temperature;BME280_humidity;BME280_pressure;Samples;Min_cycle;Max_cycle;Signal;HPM_P1;HPM_P2
2023/03/31 00:01:34;;;;;;;7.33;4.50;;;;;;;-141.97;39.90;47651.69;4890878;29;20174;-91
2023/03/31 00:04:03;;;;;;;6.97;4.53;;;;;;;-141.97;39.76;47363.41;4882505;29;20570;-91
2023/03/31 00:06:37;;;;;;;7.43;4.40;;;;;;;-141.97;40.11;47515.22;4892888;29;20179;-93
2023/03/31 00:09:08;;;;;;;7.97;4.23;;;;;;;-141.97;40.02;47628.63;4915554;29;20240;-94
2023/03/31 00:11:34;;;;;;;8.43;4.57;;;;;;;-141.97;40.21;47497.94;4911519;29;20250;-90
2023/03/31 00:14:00;;;;;;;7.50;4.57;;;;;;;-141.97;40.60;47494.09;4886789;29;20237;-93
2023/03/31 00:16:26;;;;;;;10.30;5.07;;;;;;;-141.97;40.24;47609.41;4885021;29;20178;-91
2023/03/31 00:18:51;;;;;;;10.67;5.33;;;;;;;-141.97;40.45;47657.47;4900670;29;20257;-91
2023/03/31 00:21:23;;;;;;;10.93;5.40;;;;;;;-141.97;40.43;47657.47;4884985;29;20175;-91
2023/03/31 00:23:53;;;;;;;10.77;5.70;;;;;;;-141.97;40.49;47480.63;4899961;29;20171;-92
2023/03/31 00:26:21;;;;;;;8.77;5.57;;;;;;;-141.97;40.40;47655.53;4901280;29;20175;-92
2023/03/31 00:28:46;;;;;;;11.77;6.67;;;;;;;-141.97;40.85;47421.06;4900499;29;20193;-92
2023/03/31 00:31:11;;;;;;;13.10;5.80;;;;;;;-141.97;41.11;47559.44;4900344;29;20179;-91
2023/03/31 00:33:37;;;;;;;9.63;4.67;;;;;;;-141.97;41.06;47447.97;4900045;29;20195;-91
2023/03/31 00:36:04;;;;;;;10.10;4.90;;;;;;;-141.97;41.44;47413.38;4884213;29;20636;-93
2023/03/31 00:38:31;;;;;;;7.23;4.63;;;;;;;-141.97;41.41;47626.72;4900933;29;20263;-92
2023/03/31 00:40:57;;;;;;;7.63;4.57;;;;;;;-141.97;41.52;47465.25;4883392;29;20242;-91
2023/03/31 00:43:32;;;;;;;7.33;4.57;;;;;;;-141.97;42.04;47530.59;4899901;29;20182;-91
2023/03/31 00:46:16;;;;;;;10.07;4.93;;;;;;;-141.97;41.53;47645.94;4887173;29;20233;-93
2023/03/31 00:48:52;;;;;;;8.47;4.77;;;;;;;-141.97;41.78;47455.66;4902626;29;20192;-91
2023/03/31 00:51:21;;;;;;;8.80;5.07;;;;;;;-141.97;42.11;47657.47;4903102;29;20637;-89
2023/03/31 00:53:59;;;;;;;8.73;5.03;;;;;;;-141.97;41.88;47634.41;4902048;29;20297;-92
2023/03/31 00:56:30;;;;;;;9.70;4.70;;;;;;;-141.97;42.44;47657.47;4902355;29;20189;-89
2023/03/31 00:59:01;;;;;;;8.87;4.67;;;;;;;-141.97;42.18;47657.47;4903001;29;20181;-93
2023/03/31 01:01:26;;;;;;;8.83;5.00;;;;;;;-141.97;42.53;47553.69;4901987;29;20178;-93
2023/03/31 01:03:52;;;;;;;9.17;4.83;;;;;;;-141.97;42.84;47517.16;4925850;29;20157;-92
2023/03/31 01:06:18;;;;;;;7.30;4.63;;;;;;;-141.97;42.14;47578.66;4920256;29;20178;-93
2023/03/31 01:08:47;;;;;;;11.67;5.37;;;;;;;-141.97;43.01;47532.53;4920036;29;20212;-92
2023/03/31 01:11:16;;;;;;;7.57;5.00;;;;;;;-141.97;42.83;47542.16;4919425;29;20676;-93
2023/03/31 01:13:42;;;;;;;7.77;4.30;;;;;;;-141.97;43.15;47676.69;4902475;29;20202;-92
2023/03/31 01:16:08;;;;;;;10.30;5.50;;;;;;;-141.97;43.34;47601.72;4902261;29;20265;-92
2023/03/31 01:18:34;;;;;;;9.93;5.20;;;;;;;-141.97;42.80;47363.41;4902283;29;20189;-92
2023/03/31 01:21:09;;;;;;;9.77;5.53;;;;;;;-141.97;42.88;47569.06;4917837;29;20695;-90
2023/03/31 01:24:02;;;;;;;18.63;9.47;;;;;;;-141.97;43.77;47588.28;4901913;29;20173;-93
2023/03/31 01:27:00;;;;;;;12.67;7.07;;;;;;;-141.97;44.74;47559.44;4902087;29;20172;-94
2023/03/31 01:29:39;;;;;;;12.20;6.80;;;;;;;-141.97;44.15;47534.44;4917976;29;20268;-91
2023/03/31 01:32:23;;;;;;;13.13;7.17;;;;;;;-141.97;44.22;47561.38;4918292;29;20521;-92
2023/03/31 01:35:00;;;;;;;10.07;6.20;;;;;;;-141.97;44.67;47590.19;4925758;29;20646;-91
2023/03/31 01:37:55;;;;;;;12.23;6.00;;;;;;;-141.97;44.52;47451.81;4901601;29;20217;-93
2023/03/31 01:40:44;;;;;;;8.70;5.40;;;;;;;-141.97;44.60;47451.81;4902000;29;20265;-91
2023/03/31 01:43:25;;;;;;;13.20;5.20;;;;;;;-141.97;44.32;47634.41;4901954;29;20186;-92
2023/03/31 01:45:59;;;;;;;10.17;5.70;;;;;;;-141.97;44.90;47584.44;4901551;29;20218;-92
2023/03/31 01:48:52;;;;;;;10.10;5.30;;;;;;;-141.97;44.88;47513.31;4917293;29;20239;-91
2023/03/31 01:51:27;;;;;;;10.07;5.30;;;;;;;-141.97;45.03;47403.75;4917914;29;20265;-91
2023/03/31 01:53:59;;;;;;;9.27;5.17;;;;;;;-141.97;45.52;47611.34;4901257;29;20591;-91
2023/03/31 01:56:37;;;;;;;8.73;5.47;;;;;;;-141.97;45.62;47540.22;4901211;29;20239;-90
2023/03/31 01:59:25;;;;;;;10.20;5.63;;;;;;;-141.97;46.13;47513.31;4917817;29;20162;-91
2023/03/31 02:02:07;;;;;;;8.70;5.43;;;;;;;-141.97;46.33;47436.44;4917093;29;20170;-93
2023/03/31 02:04:38;;;;;;;10.77;5.07;;;;;;;-141.97;46.88;47384.53;4918160;29;20159;-92
2023/03/31 02:07:12;;;;;;;10.77;5.27;;;;;;;-141.97;47.51;47438.34;4901082;29;20406;-91
2023/03/31 02:09:42;;;;;;;9.03;5.27;;;;;;;-141.97;47.18;47494.09;4916714;29;20411;-91
2023/03/31 02:12:10;;;;;;;11.13;5.27;;;;;;;-141.97;47.52;47488.31;4900975;29;20170;-92
2023/03/31 02:14:42;;;;;;;11.90;5.60;;;;;;;-141.97;47.83;47570.97;4900890;29;20560;-91
2023/03/31 02:17:16;;;;;;;10.60;5.50;;;;;;;-141.97;47.83;47453.72;4901003;29;20410;-90
2023/03/31 02:19:44;;;;;;;10.33;5.47;;;;;;;-141.97;47.92;47482.56;4900914;29;20544;-91
2023/03/31 02:22:12;;;;;;;11.43;5.77;;;;;;;-141.97;48.65;47638.25;4917435;29;20417;-90
2023/03/31 02:24:40;;;;;;;9.37;5.83;;;;;;;-141.97;48.42;47515.22;4918256;29;20407;-90
2023/03/31 02:27:17;;;;;;;10.53;5.50;;;;;;;-141.97;48.62;47544.06;4904218;29;20472;-91
2023/03/31 02:29:43;;;;;;;12.43;6.17;;;;;;;-141.97;48.90;47484.47;4901840;29;20410;-91
2023/03/31 02:32:35;;;;;;;11.83;5.70;;;;;;;-141.97;49.04;47647.84;4917919;29;20505;-91
2023/03/31 02:35:01;;;;;;;10.80;5.47;;;;;;;-141.97;48.48;47565.22;4900750;29;20258;-91
2023/03/31 02:37:29;;;;;;;15.00;6.13;;;;;;;-141.97;48.27;47476.78;4900290;29;20418;-92
2023/03/31 02:39:57;;;;;;;12.17;5.77;;;;;;;-141.97;48.27;47469.09;4900769;29;20643;-92
2023/03/31 02:42:24;;;;;;;9.60;5.80;;;;;;;-141.97;47.91;47605.56;4917871;29;20465;-93
2023/03/31 02:44:50;;;;;;;10.27;5.70;;;;;;;-141.97;47.79;47659.38;4898762;29;20819;-91
2023/03/31 02:47:17;;;;;;;11.30;5.80;;;;;;;-141.97;47.85;47565.22;4881720;29;20557;-94
2023/03/31 02:49:56;;;;;;;10.03;5.90;;;;;;;-141.97;47.86;47438.34;4883688;29;20167;-93
2023/03/31 02:53:03;;;;;;;14.27;6.50;;;;;;;-141.97;47.94;47569.06;4894109;29;20455;-93
2023/03/31 02:55:56;;;;;;;12.83;6.03;;;;;;;-141.97;49.05;47430.66;4888664;29;20498;-93
2023/03/31 02:58:56;;;;;;;18.27;6.27;;;;;;;-141.97;48.60;47496.00;4862221;29;20435;-93
2023/03/31 03:01:25;;;;;;;12.87;5.70;;;;;;;-141.97;48.73;47542.16;4864052;29;20431;-92
2023/03/31 03:04:09;;;;;;;12.03;6.00;;;;;;;-141.97;48.59;47526.75;4885430;29;20451;-92
2023/03/31 03:06:52;;;;;;;18.40;7.37;;;;;;;-141.97;48.85;47538.28;4878110;29;20436;-92
2023/03/31 03:09:43;;;;;;;15.33;7.63;;;;;;;-141.97;48.68;47561.38;4866555;29;20423;-94
2023/03/31 03:12:24;;;;;;;18.03;6.90;;;;;;;-141.97;48.35;47530.59;4878510;29;20591;-92
2023/03/31 03:15:00;;;;;;;13.13;6.90;;;;;;;-141.97;48.54;47426.81;4862184;29;20460;-92
2023/03/31 03:17:33;;;;;;;11.63;6.23;;;;;;;-141.97;48.84;47436.44;4878513;29;20427;-93
2023/03/31 03:20:01;;;;;;;10.97;6.37;;;;;;;-141.97;49.10;47446.03;4866208;29;20479;-91
2023/03/31 03:22:27;;;;;;;13.40;6.23;;;;;;;-141.97;48.96;47417.22;4899445;29;20515;-92
2023/03/31 03:24:52;;;;;;;11.03;6.13;;;;;;;-141.97;49.66;47653.63;4863657;29;20464;-93
2023/03/31 03:27:21;;;;;;;11.80;5.93;;;;;;;-141.97;50.82;47549.84;4877907;29;20175;-92
2023/03/31 03:29:47;;;;;;;9.90;6.23;;;;;;;-141.97;53.06;47496.00;4885766;29;20311;-90
2023/03/31 03:32:13;;;;;;;15.17;6.40;;;;;;;-141.97;52.80;47519.06;4893436;29;20434;-93
2023/03/31 03:34:38;;;;;;;14.07;6.80;;;;;;;-141.97;51.89;47540.22;4898124;29;20482;-91
2023/03/31 03:37:04;;;;;;;14.57;7.00;;;;;;;-141.97;52.32;47632.47;4907763;29;20249;-92
2023/03/31 03:39:30;;;;;;;31.20;13.53;;;;;;;-141.97;53.66;47603.66;4885276;29;20278;-93
2023/03/31 03:41:55;;;;;;;18.07;8.33;;;;;;;-141.97;53.77;47611.34;4882838;29;20187;-94
2023/03/31 03:44:21;;;;;;;12.50;6.80;;;;;;;-141.97;53.92;47594.03;4900291;29;20210;-91
2023/03/31 03:46:46;;;;;;;12.67;6.80;;;;;;;-141.97;55.13;47597.88;4891462;29;20222;-93
2023/03/31 03:49:11;;;;;;;16.30;6.50;;;;;;;-141.97;55.15;47497.94;4885187;29;20186;-93
2023/03/31 03:51:37;;;;;;;10.97;6.23;;;;;;;-141.97;54.40;47496.00;4884966;29;20189;-93
2023/03/31 03:54:02;;;;;;;12.03;6.40;;;;;;;-141.97;53.60;47532.53;4902546;29;20206;-93
2023/03/31 03:56:28;;;;;;;13.30;6.40;;;;;;;-141.97;53.47;47601.72;4886120;29;20186;-94
2023/03/31 03:58:53;;;;;;;12.97;6.10;;;;;;;-141.97;53.52;47422.97;4902317;29;20477;-92
2023/03/31 04:01:19;;;;;;;10.13;5.60;;;;;;;-141.97;52.99;47465.25;4889432;29;20714;-92
2023/03/31 04:03:45;;;;;;;15.53;5.73;;;;;;;-141.97;53.49;47469.09;4890276;29;20657;-93
2023/03/31 04:06:10;;;;;;;14.67;6.97;;;;;;;-141.97;52.43;47542.16;4890859;29;20411;-92
2023/03/31 04:08:36;;;;;;;11.53;6.40;;;;;;;-141.97;52.44;47488.31;4887116;29;20186;-92
2023/03/31 04:11:03;;;;;;;10.67;6.10;;;;;;;-141.97;51.99;47567.13;4903330;29;20179;-91
2023/03/31 04:13:28;;;;;;;12.57;6.57;;;;;;;-141.97;52.07;47532.53;4901952;29;20277;-93
2023/03/31 04:15:53;;;;;;;14.63;7.20;;;;;;;-141.97;51.49;47565.22;4885190;29;20494;-92
2023/03/31 04:18:22;;;;;;;10.90;6.00;;;;;;;-141.97;50.95;47459.50;4885646;29;20194;-92
2023/03/31 04:20:53;;;;;;;11.73;6.00;;;;;;;-141.97;50.14;47511.38;4885431;29;20269;-91
2023/03/31 04:23:22;;;;;;;13.77;6.47;;;;;;;-141.97;50.20;47409.53;4885044;29;20536;-92
2023/03/31 04:25:49;;;;;;;13.83;6.73;;;;;;;-141.97;51.91;47634.41;4885399;29;20431;-91
2023/03/31 04:28:14;;;;;;;15.40;6.97;;;;;;;-141.97;53.36;47413.38;4884939;29;20423;-92
2023/03/31 04:30:39;;;;;;;16.20;8.50;;;;;;;-141.97;53.22;47507.53;4884717;29;20930;-93
2023/03/31 04:33:05;;;;;;;16.23;7.73;;;;;;;-141.97;53.35;47524.84;4885493;29;20192;-93
2023/03/31 04:35:47;;;;;;;16.07;8.87;;;;;;;-141.97;52.49;47457.56;4885207;29;20205;-94
2023/03/31 04:38:12;;;;;;;15.70;8.83;;;;;;;-141.97;51.99;47619.03;4900176;29;20175;-92
2023/03/31 04:40:38;;;;;;;15.90;9.07;;;;;;;-141.97;51.93;47619.03;4885196;29;20450;-94
2023/03/31 04:43:04;;;;;;;15.40;9.23;;;;;;;-141.97;51.04;47426.81;4885764;29;20171;-92
2023/03/31 04:45:30;;;;;;;19.43;10.00;;;;;;;-141.97;50.92;47446.03;4900312;29;20406;-92
2023/03/31 04:47:55;;;;;;;17.33;10.03;;;;;;;-141.97;50.17;47651.69;4902156;29;20234;-92
2023/03/31 04:50:20;;;;;;;20.43;9.80;;;;;;;-141.97;49.74;47449.88;4899762;29;20187;-93
2023/03/31 04:52:46;;;;;;;18.33;9.80;;;;;;;-141.97;49.24;47392.22;4880204;29;20361;-94
2023/03/31 04:55:11;;;;;;;20.47;9.83;;;;;;;-141.97;48.63;47595.97;4899639;29;20233;-92
2023/03/31 04:57:37;;;;;;;18.50;9.50;;;;;;;-141.97;48.34;47557.53;4901214;29;20167;-93
2023/03/31 05:00:06;;;;;;;14.93;9.03;;;;;;;-141.97;47.57;47588.28;4909160;29;20178;-93
2023/03/31 05:02:32;;;;;;;20.57;10.20;;;;;;;-141.97;47.30;47465.25;4900140;29;20187;-93
2023/03/31 05:04:58;;;;;;;21.20;10.67;;;;;;;-141.97;47.43;47428.75;4901933;29;20470;-90
2023/03/31 05:07:23;;;;;;;17.80;9.17;;;;;;;-141.97;47.35;47644.00;4883121;29;20197;-91
2023/03/31 05:09:49;;;;;;;19.03;9.90;;;;;;;-141.97;46.94;47542.16;4898310;29;20266;-91
2023/03/31 05:12:14;;;;;;;21.50;9.80;;;;;;;-141.97;46.70;47449.88;4899091;29;20627;-92
2023/03/31 05:14:40;;;;;;;20.53;10.10;;;;;;;-141.97;47.09;47636.31;4895677;29;20199;-90
2023/03/31 05:17:05;;;;;;;17.10;10.10;;;;;;;-141.97;46.77;47647.84;4884537;29;20242;-91
2023/03/31 05:19:31;;;;;;;22.57;10.90;;;;;;;-141.97;46.85;47430.66;4899882;29;20234;-90
2023/03/31 05:21:56;;;;;;;42.57;20.23;;;;;;;-141.97;46.34;47438.34;4883148;29;20274;-92
2023/03/31 05:24:22;;;;;;;25.93;14.60;;;;;;;-141.97;46.23;47422.97;4898372;29;20170;-91
2023/03/31 05:26:51;;;;;;;29.17;13.50;;;;;;;-141.97;46.10;47519.06;4916899;29;20178;-92
2023/03/31 05:29:18;;;;;;;25.03;11.27;;;;;;;-141.97;46.51;47619.03;4916974;29;20538;-92
2023/03/31 05:31:44;;;;;;;30.63;14.87;;;;;;;-141.97;46.40;47561.38;4917022;29;20939;-90
2023/03/31 05:34:10;;;;;;;162.00;53.70;;;;;;;-141.97;46.05;47624.78;4935623;29;20476;-92
2023/03/31 05:36:36;;;;;;;70.17;29.10;;;;;;;-141.97;46.12;47576.75;4979019;23;20572;-93
2023/03/31 05:39:02;;;;;;;69.43;29.37;;;;;;;-141.97;46.26;47546.00;4937294;29;20268;-92
2023/03/31 05:41:28;;;;;;;55.30;24.60;;;;;;;-141.97;47.06;47632.47;4921369;29;20177;-91
2023/03/31 05:43:53;;;;;;;52.87;25.20;;;;;;;-141.97;47.89;47449.88;4920983;29;20356;-92
2023/03/31 05:46:19;;;;;;;38.40;20.70;;;;;;;-141.97;47.60;47645.94;4920522;29;20204;-92
2023/03/31 05:48:44;;;;;;;46.40;23.23;;;;;;;-141.97;47.28;47659.38;4925323;29;20269;-93
2023/03/31 05:51:09;;;;;;;71.07;31.93;;;;;;;-141.97;47.36;47461.41;4901813;29;20182;-90
2023/03/31 05:53:35;;;;;;;289.43;103.83;;;;;;;-141.97;47.88;47684.38;4901168;29;20181;-90
2023/03/31 05:56:04;;;;;;;50.57;21.57;;;;;;;-141.97;47.82;47534.44;4936835;29;20621;-92
2023/03/31 05:58:30;;;;;;;40.50;18.00;;;;;;;-141.97;48.27;47630.56;4920443;29;20187;-92
2023/03/31 06:01:09;;;;;;;27.93;12.47;;;;;;;-141.97;48.15;47569.06;4920325;29;20177;-91
2023/03/31 06:03:36;;;;;;;20.40;11.10;;;;;;;-141.97;47.93;47542.16;4937548;29;20273;-91
2023/03/31 06:06:07;;;;;;;17.40;9.87;;;;;;;-141.97;48.07;47530.59;4920205;29;20177;-91
2023/03/31 06:08:33;;;;;;;16.80;9.67;;;;;;;-141.97;47.95;47669.00;4940764;29;20181;-90
2023/03/31 06:10:59;;;;;;;20.60;10.30;;;;;;;-141.97;47.86;47444.13;4953424;29;20181;-91
2023/03/31 06:13:24;;;;;;;20.07;10.13;;;;;;;-141.97;47.07;47559.44;4955920;29;20173;-92
2023/03/31 06:15:57;;;;;;;19.60;9.63;;;;;;;-141.97;46.96;47584.44;4942684;29;20650;-91
2023/03/31 06:18:23;;;;;;;19.13;9.30;;;;;;;-141.97;46.23;47530.59;4955517;29;20169;-90
2023/03/31 06:20:50;;;;;;;24.17;12.47;;;;;;;-141.97;46.59;47494.09;4958738;29;20474;-91
2023/03/31 06:23:16;;;;;;;33.67;14.30;;;;;;;-141.97;45.84;47584.44;4955003;29;20161;-92
2023/03/31 06:25:42;;;;;;;35.20;19.00;;;;;;;-141.97;45.12;47549.84;4940583;29;20180;-92
2023/03/31 06:28:07;;;;;;;35.73;14.77;;;;;;;-141.97;46.79;47620.94;4939426;29;20173;-93
2023/03/31 06:30:33;;;;;;;21.53;12.27;;;;;;;-141.97;46.84;47511.38;4937792;29;20180;-90
2023/03/31 06:32:59;;;;;;;25.90;11.80;;;;;;;-141.97;45.97;47576.75;4954693;29;20181;-93
2023/03/31 06:35:24;;;;;;;32.40;14.73;;;;;;;-141.97;46.54;47413.38;4938167;29;20422;-91
2023/03/31 06:37:50;;;;;;;44.87;19.30;;;;;;;-141.97;47.05;47455.66;4939641;29;20225;-92
2023/03/31 06:40:15;;;;;;;38.47;18.23;;;;;;;-141.97;46.00;47457.56;4940200;29;20194;-92
2023/03/31 06:42:41;;;;;;;35.40;16.20;;;;;;;-141.97;44.91;47640.16;4943346;29;20176;-93
2023/03/31 06:45:07;;;;;;;32.93;15.60;;;;;;;-141.97;45.17;47484.47;4940808;29;20282;-93
2023/03/31 06:47:33;;;;;;;29.87;14.10;;;;;;;-141.97;44.21;47603.66;4935003;29;20263;-91
2023/03/31 06:49:58;;;;;;;32.57;13.83;;;;;;;-141.97;43.80;47415.28;4916267;29;20273;-91
2023/03/31 06:52:24;;;;;;;34.80;14.93;;;;;;;-141.97;43.26;47551.75;4916166;29;20643;-90
2023/03/31 06:54:49;;;;;;;75.67;42.03;;;;;;;-141.97;42.90;47613.25;4912078;28;20255;-92
2023/03/31 06:57:15;;;;;;;51.03;27.60;;;;;;;-141.97;42.83;47503.69;4921023;29;20668;-89
2023/03/31 06:59:40;;;;;;;37.90;15.10;;;;;;;-141.97;42.10;47711.28;4936718;29;20253;-90
2023/03/31 07:02:06;;;;;;;39.30;15.33;;;;;;;-141.97;41.47;47386.47;4935685;29;20173;-89
2023/03/31 07:04:31;;;;;;;31.20;14.07;;;;;;;-141.97;41.08;47522.91;4935904;29;20197;-88
2023/03/31 07:06:58;;;;;;;33.43;15.53;;;;;;;-141.97;41.27;47422.97;4934875;29;20177;-89
2023/03/31 07:09:23;;;;;;;39.63;22.00;;;;;;;-141.97;41.01;47599.81;4919172;29;20188;-86
2023/03/31 07:11:49;;;;;;;35.17;17.53;;;;;;;-141.97;40.46;47494.09;4934934;29;20166;-87
2023/03/31 07:14:14;;;;;;;34.80;15.47;;;;;;;-141.97;40.08;47649.78;4934308;29;20662;-89
2023/03/31 07:16:40;;;;;;;33.00;14.90;;;;;;;-141.97;39.19;47609.41;4932561;29;20193;-89
2023/03/31 07:19:06;;;;;;;33.10;16.23;;;;;;;-141.97;39.08;47380.69;4937176;29;20260;-90
2023/03/31 07:21:32;;;;;;;40.53;15.23;;;;;;;-141.97;38.46;47670.91;4920874;29;20248;-87
2023/03/31 07:23:58;;;;;;;32.97;14.63;;;;;;;-141.97;39.21;47611.34;4938229;29;20654;-88
2023/03/31 07:26:23;;;;;;;35.20;15.40;;;;;;;-141.97;39.28;47549.84;4921084;29;20204;-88
2023/03/31 07:28:50;;;;;;;27.53;13.67;;;;;;;-141.97;38.61;47446.03;4937765;29;21085;-89
2023/03/31 07:31:16;;;;;;;23.87;14.37;;;;;;;-141.97;38.48;47561.38;4937300;29;20177;-88
2023/03/31 07:33:41;;;;;;;27.00;13.27;;;;;;;-141.97;37.85;47570.97;4939814;29;20174;-88
2023/03/31 07:36:08;;;;;;;23.33;11.87;;;;;;;-141.97;36.82;47503.69;4922064;29;20196;-88
2023/03/31 07:38:33;;;;;;;26.50;11.03;;;;;;;-141.97;36.97;47482.56;4939161;29;20173;-88
2023/03/31 07:40:59;;;;;;;24.20;12.93;;;;;;;-141.97;36.99;47440.28;4938220;29;20238;-88
2023/03/31 07:43:24;;;;;;;19.33;10.93;;;;;;;-141.97;37.16;47467.19;4921078;29;20183;-88
2023/03/31 07:45:50;;;;;;;19.57;10.90;;;;;;;-141.97;36.84;47453.72;4937794;29;20183;-88
2023/03/31 07:48:15;;;;;;;19.97;10.40;;;;;;;-141.97;36.44;47617.09;4912478;29;20189;-89
2023/03/31 07:50:41;;;;;;;19.47;11.00;;;;;;;-141.97;35.92;47553.69;4919819;29;20170;-89
2023/03/31 07:53:07;;;;;;;22.63;12.10;;;;;;;-141.97;34.85;47351.88;4881095;29;20201;-89
2023/03/31 07:55:33;;;;;;;21.97;11.60;;;;;;;-141.97;34.29;47515.22;4938553;29;20228;-88
2023/03/31 07:57:58;;;;;;;20.17;10.53;;;;;;;-141.97;34.64;47507.53;4940122;29;20181;-90
2023/03/31 08:00:26;;;;;;;18.57;10.60;;;;;;;-141.97;34.42;47586.34;4938165;29;20170;-89
2023/03/31 08:02:52;;;;;;;19.67;10.50;;;;;;;-141.97;34.61;47578.66;4920871;29;20732;-88
2023/03/31 08:05:19;;;;;;;19.70;10.53;;;;;;;-141.97;34.76;47532.53;4938921;29;20173;-88
2023/03/31 08:07:47;;;;;;;21.70;13.13;;;;;;;-141.97;34.62;47572.91;4936989;29;20173;-89
2023/03/31 08:10:16;;;;;;;20.23;11.70;;;;;;;-141.97;35.10;47398.00;4937925;29;20170;-89
2023/03/31 08:12:43;;;;;;;26.90;13.73;;;;;;;-141.97;34.53;47530.59;4921060;29;20173;-89
2023/03/31 08:15:08;;;;;;;24.83;12.60;;;;;;;-141.97;34.96;47380.69;4938894;29;20197;-88
2023/03/31 08:17:34;;;;;;;19.20;8.67;;;;;;;-141.97;35.40;47538.28;4931000;29;20173;-89
2023/03/31 08:20:00;;;;;;;19.43;10.00;;;;;;;-141.97;35.43;47459.50;4929076;29;20169;-90
2023/03/31 08:22:25;;;;;;;15.60;8.60;;;;;;;-141.97;34.70;47407.59;4940915;29;20180;-88
2023/03/31 08:24:51;;;;;;;20.47;9.93;;;;;;;-141.97;34.05;47615.19;4939024;29;20210;-89
2023/03/31 08:27:16;;;;;;;21.33;11.20;;;;;;;-141.97;34.47;47630.56;4938688;29;20169;-89
2023/03/31 08:29:42;;;;;;;21.40;11.93;;;;;;;-141.97;34.10;47609.41;4920631;29;20173;-87
2023/03/31 08:32:07;;;;;;;21.57;11.57;;;;;;;-141.97;33.50;47505.63;4937573;29;20535;-89
2023/03/31 08:34:32;;;;;;;14.93;6.63;;;;;;;-141.97;34.10;47588.28;4919999;29;20200;-89
2023/03/31 08:36:58;;;;;;;13.63;7.60;;;;;;;-141.97;34.02;47472.94;4937362;29;20236;-89
2023/03/31 08:39:23;;;;;;;15.00;7.57;;;;;;;-141.97;35.11;47411.44;4937452;29;20690;-88
2023/03/31 08:41:58;;;;;;;17.13;8.97;;;;;;;-141.97;35.89;47503.69;4938332;29;20173;-89
2023/03/31 08:44:38;;;;;;;20.53;11.00;;;;;;;-141.97;35.42;47501.78;4920293;29;20184;-89
2023/03/31 08:47:09;;;;;;;14.30;8.30;;;;;;;-141.97;35.31;47398.00;4920850;29;20670;-90
2023/03/31 08:49:47;;;;;;;11.80;6.23;;;;;;;-141.97;35.18;47494.09;4918210;29;20186;-90
2023/03/31 08:52:23;;;;;;;12.13;6.80;;;;;;;-141.97;35.04;47405.69;4921059;29;20716;-90
2023/03/31 08:54:56;;;;;;;12.17;6.70;;;;;;;-141.97;34.49;47494.09;4908970;29;20599;-89
2023/03/31 08:57:27;;;;;;;11.70;6.90;;;;;;;-141.97;33.64;47465.25;4917151;29;20269;-91
2023/03/31 08:59:57;;;;;;;14.93;7.03;;;;;;;-141.97;33.15;47424.91;4903525;29;20174;-89
2023/03/31 09:02:31;;;;;;;11.20;7.33;;;;;;;-141.97;33.17;47503.69;4937343;29;20192;-90
2023/03/31 09:05:05;;;;;;;9.37;6.20;;;;;;;-141.97;33.90;47482.56;4936785;29;20596;-88
2023/03/31 09:07:50;;;;;;;10.43;5.50;;;;;;;-141.97;34.57;47515.22;4937186;29;20618;-89
2023/03/31 09:10:40;;;;;;;13.03;7.00;;;;;;;-141.97;34.88;47484.47;4921016;29;20268;-88
2023/03/31 09:13:24;;;;;;;9.37;5.93;;;;;;;-141.97;35.27;47472.94;4919788;29;20177;-88
2023/03/31 09:16:00;;;;;;;9.57;6.10;;;;;;;-141.97;34.53;47461.41;4927191;29;20212;-88
2023/03/31 09:18:34;;;;;;;5.83;4.70;;;;;;;-141.97;34.47;47503.69;4928411;29;20174;-88
2023/03/31 09:21:18;;;;;;;10.43;6.33;;;;;;;-141.97;34.09;47526.75;4922715;29;20173;-88
2023/03/31 09:23:58;;;;;;;8.70;5.93;;;;;;;-141.97;33.55;47503.69;4946444;29;20178;-86
2023/03/31 09:26:42;;;;;;;12.07;6.63;;;;;;;-141.97;32.63;47503.69;4925279;29;20172;-87
2023/03/31 09:29:28;;;;;;;11.70;5.47;;;;;;;-141.97;33.04;47480.63;4923017;29;20182;-86
2023/03/31 09:31:54;;;;;;;9.97;5.60;;;;;;;-141.97;33.26;47503.69;4921271;29;20174;-88
2023/03/31 09:34:30;;;;;;;11.13;4.97;;;;;;;-141.97;34.61;47380.69;4909812;29;20228;-88
2023/03/31 09:36:56;;;;;;;15.87;7.47;;;;;;;-141.97;34.74;47461.41;4913910;29;20260;-88
2023/03/31 09:39:21;;;;;;;8.60;5.10;;;;;;;-141.97;34.13;47378.78;4930785;29;20298;-88
2023/03/31 09:41:49;;;;;;;8.53;4.93;;;;;;;-141.97;33.52;47446.03;4931496;29;20540;-87
2023/03/31 09:44:37;;;;;;;7.93;4.67;;;;;;;-141.97;34.27;47636.31;4911138;29;20266;-87
2023/03/31 09:47:08;;;;;;;8.27;4.80;;;;;;;-141.97;34.26;47438.34;4929584;29;20229;-88
2023/03/31 09:49:35;;;;;;;9.23;5.00;;;;;;;-141.97;33.78;47530.59;4907865;29;20169;-89
2023/03/31 09:52:13;;;;;;;7.50;4.27;;;;;;;-141.97;33.57;47323.03;4908987;29;20544;-89
2023/03/31 09:54:49;;;;;;;10.63;4.73;;;;;;;-141.97;33.67;47471.03;4902890;29;20225;-88
2023/03/31 09:57:25;;;;;;;10.60;5.33;;;;;;;-141.97;33.26;47657.47;4928882;29;20261;-88
2023/03/31 09:59:50;;;;;;;51.07;27.87;;;;;;;-141.97;33.15;47644.00;4928489;29;20173;-88
2023/03/31 10:02:39;;;;;;;19.40;10.10;;;;;;;-141.97;32.19;47319.19;4922467;29;20178;-88
2023/03/31 10:05:07;;;;;;;12.43;6.97;;;;;;;-141.97;32.63;47455.66;4928973;29;20177;-87
2023/03/31 10:07:33;;;;;;;7.20;3.97;;;;;;;-141.97;32.95;47497.94;4929939;29;20170;-87
2023/03/31 10:10:00;;;;;;;8.40;4.50;;;;;;;-141.97;33.20;47672.84;4907777;29;20691;-88
2023/03/31 10:12:28;;;;;;;12.70;7.10;;;;;;;-141.97;32.78;47649.78;4921382;29;20233;-88
2023/03/31 10:15:13;;;;;;;11.23;6.03;;;;;;;-141.97;32.33;47605.56;4925352;29;20678;-88
2023/03/31 10:17:59;;;;;;;15.13;6.77;;;;;;;-141.97;31.83;47492.16;4923835;29;20181;-88
2023/03/31 10:20:42;;;;;;;9.83;6.43;;;;;;;-141.97;31.62;47476.78;4882833;29;20206;-86
2023/03/31 10:23:23;;;;;;;12.80;8.13;;;;;;;-141.97;31.98;47457.56;4868325;29;20191;-87
2023/03/31 10:25:49;;;;;;;7.53;5.00;;;;;;;-141.97;32.09;47449.88;4888288;29;20194;-87
2023/03/31 10:28:17;;;;;;;9.30;6.00;;;;;;;-141.97;31.78;47465.25;4883046;29;20306;-87
2023/03/31 10:30:49;;;;;;;8.40;5.27;;;;;;;-141.97;31.64;47361.47;4870533;29;20195;-88
2023/03/31 10:33:19;;;;;;;8.33;5.77;;;;;;;-141.97;31.77;47467.19;4884198;29;20269;-88
2023/03/31 10:35:49;;;;;;;11.30;7.00;;;;;;;-141.97;31.24;47665.16;4884367;29;20215;-90
2023/03/31 10:38:22;;;;;;;10.53;5.20;;;;;;;-141.97;31.04;47661.31;4869556;29;20229;-87
2023/03/31 10:40:53;;;;;;;10.47;5.90;;;;;;;-141.97;31.67;47619.03;4867686;29;20176;-88
2023/03/31 10:43:28;;;;;;;9.40;5.70;;;;;;;-141.97;31.34;47497.94;4868102;29;20181;-87
2023/03/31 10:45:56;;;;;;;11.60;5.80;;;;;;;-141.97;31.42;47442.19;4868414;29;20643;-89
2023/03/31 10:48:30;;;;;;;8.33;5.93;;;;;;;-141.97;31.05;47436.44;4887418;29;20738;-86
2023/03/31 10:51:19;;;;;;;9.50;6.83;;;;;;;-141.97;30.99;47492.16;4869517;29;20183;-87
2023/03/31 10:53:45;;;;;;;7.57;5.33;;;;;;;-141.97;31.24;47438.34;4874736;29;20323;-87
2023/03/31 10:56:30;;;;;;;10.73;6.17;;;;;;;-141.97;30.57;47449.88;4884512;29;20250;-87
2023/03/31 10:59:18;;;;;;;9.43;5.70;;;;;;;-141.97;31.24;47440.28;4894446;29;20250;-89
2023/03/31 11:01:59;;;;;;;11.43;6.13;;;;;;;-141.97;30.83;47442.19;4849611;29;20216;-87
2023/03/31 11:04:53;;;;;;;9.43;6.10;;;;;;;-141.97;31.27;47469.09;4863897;29;20199;-88
2023/03/31 11:07:41;;;;;;;8.37;5.90;;;;;;;-141.97;31.67;47451.81;4879807;29;20636;-86
2023/03/31 11:10:09;;;;;;;11.17;6.13;;;;;;;-141.97;31.12;47488.31;4867404;29;20180;-86
2023/03/31 11:12:55;;;;;;;10.77;5.83;;;;;;;-141.97;31.30;47496.00;4879417;29;20180;-88
2023/03/31 11:15:21;;;;;;;11.17;6.07;;;;;;;-141.97;31.62;47444.13;4877402;29;20290;-87
2023/03/31 11:18:17;;;;;;;11.47;6.10;;;;;;;-141.97;32.08;47455.66;4860111;29;20636;-88
2023/03/31 11:21:13;;;;;;;10.90;6.10;;;;;;;-141.97;32.58;47505.63;4862382;29;20178;-89
2023/03/31 11:23:49;;;;;;;9.87;6.47;;;;;;;-141.97;32.42;47617.09;4860726;29;20183;-90
2023/03/31 11:26:20;;;;;;;10.17;6.43;;;;;;;-141.97;31.54;47449.88;4858893;29;20275;-89